createdAt,value
2018-09-22T00:01:37.978Z,57.50
2018-09-22T00:04:07.584Z,57.60
2018-09-22T00:06:37.167Z,57.60
2018-09-22T00:09:09.107Z,57.60
2018-09-22T00:11:38.668Z,57.50
2018-09-22T00:14:08.382Z,57.50
2018-09-22T00:16:37.900Z,57.50
2018-09-22T00:19:07.497Z,57.50
2018-09-22T00:21:37.139Z,57.50
2018-09-22T00:24:06.715Z,58.20
2018-09-22T00:26:36.254Z,57.60
2018-09-22T00:29:05.895Z,57.70
2018-09-22T00:31:35.464Z,57.80
2018-09-22T00:34:05.092Z,57.50
2018-09-22T00:36:34.686Z,57.50
2018-09-22T00:39:05.148Z,57.80
2018-09-22T00:41:34.707Z,57.40
2018-09-22T00:44:04.311Z,57.40
2018-09-22T00:46:33.882Z,57.50
2018-09-22T00:49:03.539Z,57.50
2018-09-22T00:51:33.106Z,57.50
2018-09-22T00:54:02.761Z,57.50
2018-09-22T00:56:32.499Z,57.50
2018-09-22T00:59:02.081Z,57.50
2018-09-22T01:01:31.751Z,57.50
2018-09-22T01:04:01.420Z,57.50
2018-09-22T01:06:31.001Z,58.10
2018-09-22T01:09:00.560Z,57.80
2018-09-22T01:11:30.145Z,57.70
2018-09-22T01:13:59.755Z,57.60
2018-09-22T01:16:29.280Z,57.30
2018-09-22T01:18:58.884Z,57.30
2018-09-22T01:21:28.487Z,57.30
2018-09-22T01:23:58.083Z,57.60
2018-09-22T01:26:27.674Z,57.80
2018-09-22T01:28:57.225Z,57.80
2018-09-22T01:31:26.830Z,57.40
2018-09-22T01:33:56.509Z,57.30
2018-09-22T01:36:26.130Z,57.30
2018-09-22T01:38:55.695Z,57.40
2018-09-22T01:41:25.322Z,57.30
2018-09-22T01:43:54.905Z,57.30
2018-09-22T01:46:24.465Z,57.30
2018-09-22T01:48:54.049Z,57.30
2018-09-22T01:51:23.756Z,57.30
2018-09-22T01:53:53.385Z,57.30
2018-09-22T01:56:23.001Z,57.30
2018-09-22T01:58:52.602Z,57.30
2018-09-22T02:01:22.218Z,57.20
2018-09-22T02:03:51.747Z,57.80
2018-09-22T02:06:21.280Z,57.50
2018-09-22T02:08:50.832Z,57.00
2018-09-22T02:11:20.430Z,56.50
2018-09-22T02:13:49.984Z,57.10
2018-09-22T02:16:19.869Z,57.20
2018-09-22T02:18:49.389Z,57.10
2018-09-22T02:21:18.925Z,57.10
2018-09-22T02:23:48.493Z,56.00
2018-09-22T02:26:18.107Z,56.30
2018-09-22T02:28:47.693Z,56.00
2018-09-22T02:31:17.283Z,56.10
2018-09-22T02:33:46.823Z,55.80
2018-09-22T02:36:16.364Z,56.00
2018-09-22T02:38:47.118Z,56.00
2018-09-22T02:41:16.633Z,55.80
2018-09-22T02:43:46.518Z,56.30
2018-09-22T02:46:16.050Z,56.70
2018-09-22T02:48:45.620Z,56.90
2018-09-22T02:51:15.167Z,57.00
2018-09-22T02:53:44.782Z,56.90
2018-09-22T02:56:14.356Z,57.30
2018-09-22T02:58:44.012Z,57.50
2018-09-22T03:01:13.514Z,57.70
2018-09-22T03:03:43.068Z,57.70
2018-09-22T03:06:12.709Z,57.60
2018-09-22T03:08:42.310Z,57.50
2018-09-22T03:11:12.256Z,57.50
2018-09-22T03:13:41.859Z,57.00
2018-09-22T03:16:11.367Z,56.90
2018-09-22T03:18:40.930Z,56.90
2018-09-22T03:21:10.463Z,56.90
2018-09-22T03:23:39.967Z,57.10
2018-09-22T03:26:09.527Z,58.00
2018-09-22T03:28:39.137Z,57.50
2018-09-22T03:31:08.889Z,57.30
2018-09-22T03:33:38.461Z,57.50
2018-09-22T03:36:07.972Z,57.50
2018-09-22T03:38:37.480Z,57.70
2018-09-22T03:41:07.044Z,57.60
2018-09-22T03:43:36.590Z,58.50
2018-09-22T03:46:06.146Z,57.70
2018-09-22T03:48:35.679Z,57.70
2018-09-22T03:51:05.489Z,57.60
2018-09-22T03:53:35.127Z,57.70
2018-09-22T03:56:04.788Z,58.00
2018-09-22T03:58:34.354Z,58.20
2018-09-22T04:01:04.272Z,58.20
2018-09-22T04:03:33.843Z,58.20
2018-09-22T04:06:03.455Z,58.30
2018-09-22T04:08:33.003Z,58.10
2018-09-22T04:11:02.532Z,58.20
2018-09-22T04:13:32.048Z,58.20
2018-09-22T04:16:01.968Z,58.20
2018-09-22T04:18:31.700Z,58.20
2018-09-22T04:21:01.243Z,58.30
2018-09-22T04:23:30.832Z,58.30
2018-09-22T04:26:00.412Z,58.20
2018-09-22T04:28:29.980Z,58.30
2018-09-22T04:30:59.628Z,58.30
2018-09-22T04:33:29.315Z,58.10
2018-09-22T04:35:59.162Z,58.30
2018-09-22T04:38:29.063Z,58.00
2018-09-22T04:40:58.636Z,58.00
2018-09-22T04:43:28.190Z,57.70
2018-09-22T04:45:57.759Z,57.40
2018-09-22T04:48:27.283Z,57.80
2018-09-22T04:50:56.852Z,57.30
2018-09-22T04:53:26.429Z,57.40
2018-09-22T04:55:56.025Z,57.40
2018-09-22T04:58:25.520Z,57.40
2018-09-22T05:00:55.117Z,57.40
2018-09-22T05:03:24.690Z,57.40
2018-09-22T05:05:54.259Z,57.40
2018-09-22T05:08:23.930Z,57.40
2018-09-22T05:10:53.508Z,57.40
2018-09-22T05:13:29.644Z,57.40
2018-09-22T05:15:59.200Z,57.40
2018-09-22T05:18:29.084Z,57.40
2018-09-22T05:20:58.692Z,57.40
2018-09-22T05:23:28.256Z,57.50
2018-09-22T05:25:57.801Z,57.50
2018-09-22T05:28:27.392Z,57.50
2018-09-22T05:30:57.035Z,57.50
2018-09-22T05:33:26.706Z,57.50
2018-09-22T05:35:56.533Z,56.80
2018-09-22T05:38:26.124Z,57.10
2018-09-22T05:40:55.672Z,57.10
2018-09-22T05:43:25.625Z,57.10
2018-09-22T05:45:55.202Z,56.50
2018-09-22T05:48:24.765Z,56.50
2018-09-22T05:50:54.321Z,56.50
2018-09-22T05:53:23.876Z,56.80
2018-09-22T05:55:53.444Z,56.70
2018-09-22T05:58:22.985Z,56.70
2018-09-22T06:00:52.617Z,56.30
2018-09-22T06:03:22.230Z,56.00
2018-09-22T06:05:52.271Z,56.00
2018-09-22T06:08:21.953Z,57.00
2018-09-22T06:10:51.491Z,56.10
2018-09-22T06:13:21.071Z,55.80
2018-09-22T06:15:50.683Z,55.90
2018-09-22T06:18:20.309Z,55.90
2018-09-22T06:20:49.886Z,55.80
2018-09-22T06:23:19.456Z,55.90
2018-09-22T06:25:49.043Z,55.80
2018-09-22T06:28:18.605Z,55.10
2018-09-22T06:30:48.175Z,54.90
2018-09-22T06:33:19.610Z,55.00
2018-09-22T06:35:52.173Z,54.10
2018-09-22T06:38:21.906Z,54.10
2018-09-22T06:40:51.443Z,53.60
2018-09-22T06:43:20.946Z,54.40
2018-09-22T06:45:50.445Z,54.00
2018-09-22T06:48:20.209Z,53.80
2018-09-22T06:50:50.436Z,54.20
2018-09-22T06:53:21.236Z,53.80
2018-09-22T06:55:51.453Z,53.90
2018-09-22T06:58:20.965Z,54.10
2018-09-22T07:00:50.514Z,54.20
2018-09-22T07:03:20.069Z,54.20
2018-09-22T07:05:49.606Z,54.20
2018-09-22T07:08:19.094Z,54.20
2018-09-22T07:10:48.617Z,53.50
2018-09-22T07:13:18.115Z,53.30
2018-09-22T07:15:47.683Z,53.40
2018-09-22T07:18:17.611Z,53.50
2018-09-22T07:20:52.457Z,53.10
2018-09-22T07:23:22.038Z,52.40
2018-09-22T07:25:51.638Z,52.20
2018-09-22T07:28:21.313Z,51.80
2018-09-22T07:30:51.226Z,51.50
2018-09-22T07:33:20.992Z,51.00
2018-09-22T07:35:50.491Z,50.10
2018-09-22T07:38:20.040Z,49.80
2018-09-22T07:40:50.277Z,49.50
2018-09-22T07:43:20.211Z,49.70
2018-09-22T07:45:50.364Z,48.70
2018-09-22T07:48:19.882Z,50.50
2018-09-22T07:50:50.625Z,49.90
2018-09-22T07:53:21.019Z,49.00
2018-09-22T07:55:50.631Z,48.90
2018-09-22T07:58:20.173Z,48.70
2018-09-22T08:00:49.782Z,48.80
2018-09-22T08:03:19.275Z,48.80
2018-09-22T08:05:48.838Z,48.80
2018-09-22T08:08:18.367Z,48.80
2018-09-22T08:10:47.864Z,48.90
2018-09-22T08:13:17.337Z,49.00
2018-09-22T08:15:47.184Z,48.30
2018-09-22T08:18:17.066Z,47.20
2018-09-22T08:20:46.583Z,47.10
2018-09-22T08:23:16.093Z,45.70
2018-09-22T08:25:45.607Z,45.50
2018-09-22T08:28:15.110Z,46.30
2018-09-22T08:30:44.641Z,45.80
2018-09-22T08:33:14.482Z,44.40
2018-09-22T08:35:44.403Z,45.40
2018-09-22T08:38:14.400Z,44.40
2018-09-22T08:40:43.916Z,44.70
2018-09-22T08:43:13.390Z,44.10
2018-09-22T08:45:42.918Z,43.40
2018-09-22T08:48:12.741Z,43.80
2018-09-22T08:50:42.254Z,44.50
2018-09-22T08:53:11.790Z,42.10
2018-09-22T08:55:41.246Z,41.70
2018-09-22T08:58:10.731Z,43.60
2018-09-22T09:00:40.309Z,43.80
2018-09-22T09:03:09.813Z,43.00
2018-09-22T09:05:39.300Z,42.70
2018-09-22T09:08:08.866Z,43.00
2018-09-22T09:10:38.699Z,43.10
2018-09-22T09:13:09.066Z,43.30
2018-09-22T09:15:38.639Z,43.30
2018-09-22T09:18:08.287Z,43.60
2018-09-22T09:20:37.766Z,43.30
2018-09-22T09:23:07.283Z,43.40
2018-09-22T09:25:36.856Z,43.90
2018-09-22T09:28:06.772Z,44.30
2018-09-22T09:30:36.337Z,43.40
2018-09-22T09:33:05.872Z,43.90
2018-09-22T09:35:35.412Z,43.20
2018-09-22T09:38:04.980Z,42.10
2018-09-22T09:40:34.478Z,42.10
2018-09-22T09:43:04.050Z,41.20
2018-09-22T09:45:33.606Z,42.30
2018-09-22T09:48:03.106Z,41.90
2018-09-22T09:50:32.643Z,41.60
2018-09-22T09:53:02.130Z,42.10
2018-09-22T09:55:31.942Z,40.90
2018-09-22T09:58:01.412Z,41.40
2018-09-22T10:00:36.233Z,40.90
2018-09-22T10:03:05.801Z,41.00
2018-09-22T10:05:36.422Z,41.00
2018-09-22T10:08:06.180Z,41.70
2018-09-22T10:10:36.071Z,41.10
2018-09-22T10:13:05.673Z,41.10
2018-09-22T10:15:35.278Z,41.00
2018-09-22T10:18:04.871Z,39.90
2018-09-22T10:20:34.356Z,39.90
2018-09-22T10:23:03.820Z,40.70
2018-09-22T10:25:33.280Z,40.70
2018-09-22T10:28:02.754Z,40.80
2018-09-22T10:30:32.259Z,40.90
2018-09-22T10:33:01.719Z,39.80
2018-09-22T10:35:31.340Z,39.60
2018-09-22T10:38:01.583Z,40.10
2018-09-22T10:40:31.153Z,40.10
2018-09-22T10:43:00.645Z,40.00
2018-09-22T10:45:30.201Z,39.30
2018-09-22T10:47:59.735Z,38.60
2018-09-22T10:50:29.265Z,39.80
2018-09-22T10:52:58.774Z,39.30
2018-09-22T10:55:28.304Z,39.20
2018-09-22T10:57:57.785Z,40.20
2018-09-22T11:00:27.279Z,40.70
2018-09-22T11:02:56.788Z,41.20
2018-09-22T11:05:26.267Z,41.70
2018-09-22T11:07:55.771Z,41.20
2018-09-22T11:10:25.368Z,41.50
2018-09-22T11:12:55.051Z,40.90
2018-09-22T11:15:24.896Z,40.90
2018-09-22T11:17:54.412Z,40.80
2018-09-22T11:20:24.168Z,40.40
2018-09-22T11:22:53.818Z,40.10
2018-09-22T11:25:23.265Z,40.50
2018-09-22T11:27:52.762Z,39.40
2018-09-22T11:30:22.312Z,38.30
2018-09-22T11:32:51.809Z,39.60
2018-09-22T11:35:21.373Z,38.90
2018-09-22T11:37:50.931Z,39.10
2018-09-22T11:40:20.434Z,39.10
2018-09-22T11:42:49.933Z,38.60
2018-09-22T11:45:19.436Z,37.90
2018-09-22T11:47:48.881Z,38.60
2018-09-22T11:50:18.412Z,38.40
2018-09-22T11:52:47.929Z,38.70
2018-09-22T11:55:18.954Z,38.60
2018-09-22T11:57:48.442Z,38.90
2018-09-22T12:00:18.953Z,40.00
2018-09-22T12:05:26.700Z,40.40
2018-09-22T12:07:57.009Z,40.70
2018-09-22T12:10:26.741Z,40.30
2018-09-22T12:12:56.538Z,40.40
2018-09-22T12:15:26.168Z,39.90
2018-09-22T12:17:55.697Z,40.30
2018-09-22T12:20:25.203Z,36.30
2018-09-22T12:22:54.694Z,36.50
2018-09-22T12:25:24.173Z,37.80
2018-09-22T12:27:53.706Z,37.50
2018-09-22T12:30:23.256Z,37.50
2018-09-22T12:32:52.777Z,38.20
2018-09-22T12:35:22.264Z,38.10
2018-09-22T12:37:51.802Z,38.70
2018-09-22T12:40:21.353Z,39.70
2018-09-22T12:42:50.840Z,40.20
2018-09-22T12:45:20.336Z,40.60
2018-09-22T12:47:49.819Z,40.80
2018-09-22T12:50:19.342Z,40.60
2018-09-22T12:52:48.791Z,40.40
2018-09-22T12:55:18.266Z,40.90
2018-09-22T12:57:47.768Z,40.60
2018-09-22T13:00:17.323Z,40.70
2018-09-22T13:02:46.785Z,40.70
2018-09-22T13:05:16.256Z,41.00
2018-09-22T13:07:45.778Z,41.10
2018-09-22T13:10:15.337Z,40.50
2018-09-22T13:12:45.291Z,40.10
2018-09-22T13:15:15.491Z,39.50
2018-09-22T13:17:45.055Z,40.60
2018-09-22T13:20:14.669Z,40.80
2018-09-22T13:22:44.288Z,41.10
2018-09-22T13:25:13.829Z,40.30
2018-09-22T13:27:44.231Z,40.90
2018-09-22T13:30:13.888Z,41.40
2018-09-22T13:32:43.473Z,41.60
2018-09-22T13:35:13.687Z,42.40
2018-09-22T13:37:44.680Z,42.70
2018-09-22T13:40:14.393Z,43.50
2018-09-22T13:42:43.994Z,43.30
2018-09-22T13:45:13.561Z,43.90
2018-09-22T13:47:43.126Z,43.30
2018-09-22T13:50:13.950Z,42.90
2018-09-22T13:52:43.557Z,43.20
2018-09-22T13:55:12.962Z,43.20
2018-09-22T13:57:48.832Z,42.10
2018-09-22T14:00:18.452Z,42.10
2018-09-22T14:02:47.960Z,42.70
2018-09-22T14:05:17.498Z,41.00
2018-09-22T14:07:47.096Z,40.80
2018-09-22T14:10:17.985Z,41.10
2018-09-22T14:12:47.769Z,41.10
2018-09-22T14:15:17.287Z,41.00
2018-09-22T14:17:46.838Z,41.10
2018-09-22T14:20:16.400Z,41.00
2018-09-22T14:22:45.912Z,40.90
2018-09-22T14:25:15.406Z,40.80
2018-09-22T14:27:44.982Z,42.20
2018-09-22T14:30:14.524Z,42.00
2018-09-22T14:32:44.105Z,42.40
2018-09-22T14:35:13.625Z,42.30
2018-09-22T14:37:43.129Z,42.50
2018-09-22T14:40:13.515Z,42.90
2018-09-22T14:42:43.095Z,43.20
2018-09-22T14:45:12.703Z,43.60
2018-09-22T14:47:42.190Z,43.70
2018-09-22T14:50:11.770Z,44.10
2018-09-22T14:52:41.339Z,44.60
2018-09-22T14:55:10.889Z,45.60
2018-09-22T14:57:40.662Z,46.40
2018-09-22T15:00:10.199Z,47.00
2018-09-22T15:02:39.703Z,47.00
2018-09-22T15:05:09.236Z,46.90
2018-09-22T15:07:38.748Z,47.30
2018-09-22T15:10:08.370Z,47.70
2018-09-22T15:12:37.996Z,47.80
2018-09-22T15:15:07.591Z,48.10
2018-09-22T15:17:37.338Z,48.50
2018-09-22T15:20:06.961Z,47.50
2018-09-22T15:22:36.599Z,46.60
2018-09-22T15:25:06.167Z,45.60
2018-09-22T15:27:36.060Z,43.70
2018-09-22T15:30:05.639Z,44.10
2018-09-22T15:32:35.149Z,43.70
2018-09-22T15:35:04.740Z,44.00
2018-09-22T15:37:34.403Z,43.50
2018-09-22T15:40:03.944Z,44.10
2018-09-22T15:42:33.459Z,44.20
2018-09-22T15:45:02.980Z,44.50
2018-09-22T15:47:33.170Z,44.70
2018-09-22T15:50:02.684Z,45.30
2018-09-22T15:52:32.166Z,45.40
2018-09-22T15:55:02.174Z,45.60
2018-09-22T15:57:31.693Z,46.20
2018-09-22T16:00:01.181Z,46.40
2018-09-22T16:02:30.683Z,46.70
2018-09-22T16:05:00.167Z,46.70
2018-09-22T16:07:29.922Z,48.20
2018-09-22T16:09:59.701Z,48.10
2018-09-22T16:12:29.208Z,48.10
2018-09-22T16:14:58.709Z,48.10
2018-09-22T16:17:28.249Z,48.10
2018-09-22T16:19:57.713Z,48.00
2018-09-22T16:22:27.241Z,48.00
2018-09-22T16:24:56.761Z,47.90
2018-09-22T16:27:26.359Z,48.40
2018-09-22T16:29:55.813Z,48.10
2018-09-22T16:32:25.367Z,48.60
2018-09-22T16:34:54.856Z,49.30
2018-09-22T16:37:24.461Z,49.50
2018-09-22T16:39:53.940Z,48.90
2018-09-22T16:42:23.744Z,49.20
2018-09-22T16:44:53.266Z,50.20
2018-09-22T16:47:22.801Z,50.20
2018-09-22T16:49:52.310Z,50.20
2018-09-22T16:52:21.870Z,50.40
2018-09-22T16:54:51.455Z,50.90
2018-09-22T16:57:21.085Z,50.70
2018-09-22T16:59:50.879Z,51.80
2018-09-22T17:02:20.431Z,51.10
2018-09-22T17:04:49.865Z,52.10
2018-09-22T17:07:20.052Z,52.10
2018-09-22T17:09:49.744Z,51.90
2018-09-22T17:12:19.276Z,52.20
2018-09-22T17:14:48.815Z,52.10
2018-09-22T17:17:18.408Z,52.40
2018-09-22T17:19:47.967Z,53.00
2018-09-22T17:22:17.486Z,52.90
2018-09-22T17:24:47.091Z,52.30
2018-09-22T17:27:16.698Z,53.20
2018-09-22T17:29:46.239Z,52.70
2018-09-22T17:32:15.842Z,52.60
2018-09-22T17:34:45.369Z,53.60
2018-09-22T17:37:14.920Z,52.80
2018-09-22T17:39:44.574Z,53.50
2018-09-22T17:42:14.065Z,53.30
2018-09-22T17:44:43.623Z,53.30
2018-09-22T17:47:13.177Z,53.30
2018-09-22T17:49:42.659Z,53.90
2018-09-22T17:52:12.174Z,54.40
2018-09-22T17:54:41.647Z,54.60
2018-09-22T17:57:11.263Z,54.00
2018-09-22T17:59:40.913Z,54.70
2018-09-22T18:02:10.955Z,54.10
2018-09-22T18:04:40.460Z,54.00
2018-09-22T18:07:10.118Z,54.20
2018-09-22T18:09:39.606Z,54.50
2018-09-22T18:12:09.217Z,54.50
2018-09-22T18:14:38.827Z,54.00
2018-09-22T18:17:08.451Z,54.90
2018-09-22T18:19:37.993Z,56.10
2018-09-22T18:22:07.583Z,55.70
2018-09-22T18:24:37.181Z,55.50
2018-09-22T18:27:06.753Z,55.90
2018-09-22T18:29:36.253Z,55.40
2018-09-22T18:32:06.001Z,56.30
2018-09-22T18:34:35.537Z,56.20
2018-09-22T18:37:05.154Z,56.80
2018-09-22T18:39:34.703Z,56.00
2018-09-22T18:42:04.269Z,56.70
2018-09-22T18:44:33.887Z,56.70
2018-09-22T18:47:03.444Z,56.80
2018-09-22T18:49:32.948Z,56.80
2018-09-22T18:52:02.428Z,56.70
2018-09-22T18:54:31.952Z,57.50
2018-09-22T18:57:01.525Z,57.10
2018-09-22T18:59:31.882Z,57.30
2018-09-22T19:02:01.418Z,57.70
2018-09-22T19:04:30.993Z,57.30
2018-09-22T19:07:00.560Z,57.80
2018-09-22T19:09:30.040Z,57.50
2018-09-22T19:11:59.541Z,57.80
2018-09-22T19:14:34.556Z,57.90
2018-09-22T19:17:14.465Z,58.00
2018-09-22T19:19:47.207Z,58.40
2018-09-22T19:22:20.536Z,57.80
2018-09-22T19:24:55.837Z,57.60
2018-09-22T19:27:28.543Z,58.30
2018-09-22T19:30:01.838Z,58.30
2018-09-22T19:32:37.151Z,58.10
2018-09-22T19:35:11.969Z,58.00
2018-09-22T19:37:44.239Z,58.10
2018-09-22T19:40:25.005Z,58.00
2018-09-22T19:43:19.067Z,58.80
2018-09-22T19:45:50.433Z,58.20
2018-09-22T19:48:42.373Z,58.20
2018-09-22T19:51:14.233Z,58.30
2018-09-22T19:53:44.132Z,58.60
2018-09-22T19:56:13.684Z,59.30
2018-09-22T19:58:43.203Z,59.60
2018-09-22T20:01:12.665Z,59.10
2018-09-22T20:03:42.119Z,59.10
2018-09-22T20:06:11.610Z,59.40
2018-09-22T20:08:41.113Z,60.60
2018-09-22T20:11:10.693Z,60.20
2018-09-22T20:13:40.454Z,60.90
2018-09-22T20:16:09.987Z,61.20
2018-09-22T20:18:39.708Z,60.60
2018-09-22T20:21:09.391Z,60.20
2018-09-22T20:23:45.394Z,60.10
2018-09-22T20:26:14.904Z,60.30
2018-09-22T20:28:44.452Z,60.20
2018-09-22T20:31:13.964Z,60.30
2018-09-22T20:33:43.512Z,60.40
2018-09-22T20:36:13.149Z,60.40
2018-09-22T20:38:42.644Z,60.60
2018-09-22T20:41:12.171Z,61.10
2018-09-22T20:43:41.648Z,61.20
2018-09-22T20:46:11.235Z,60.70
2018-09-22T20:48:40.715Z,60.80
2018-09-22T20:51:10.188Z,60.60
2018-09-22T20:53:39.710Z,61.20
2018-09-22T20:56:09.183Z,61.10
2018-09-22T20:58:39.443Z,61.10
2018-09-22T21:01:09.138Z,61.40
2018-09-22T21:03:39.034Z,62.10
2018-09-22T21:06:08.626Z,61.10
2018-09-22T21:08:38.165Z,62.30
2018-09-22T21:11:07.805Z,61.40
2018-09-22T21:13:37.293Z,61.40
2018-09-22T21:16:06.830Z,61.90
2018-09-22T21:18:36.375Z,61.50
2018-09-22T21:21:06.060Z,63.10
2018-09-22T21:23:35.593Z,63.00
2018-09-22T21:26:05.055Z,62.10
2018-09-22T21:28:34.581Z,62.60
2018-09-22T21:31:04.064Z,62.30
2018-09-22T21:33:33.533Z,62.80
2018-09-22T21:36:03.060Z,62.40
2018-09-22T21:38:32.594Z,63.00
2018-09-22T21:41:02.068Z,62.90
2018-09-22T21:43:31.573Z,62.90
2018-09-22T21:46:01.123Z,62.90
2018-09-22T21:48:30.579Z,62.60
2018-09-22T21:51:00.090Z,62.80
2018-09-22T21:53:29.612Z,62.90
2018-09-22T21:55:59.109Z,62.70
2018-09-22T21:58:28.627Z,63.80
2018-09-22T22:00:58.103Z,63.20
2018-09-22T22:03:27.643Z,64.30
2018-09-22T22:05:57.064Z,64.00
2018-09-22T22:08:26.618Z,64.10
2018-09-22T22:10:56.116Z,64.10
2018-09-22T22:13:25.921Z,63.70
2018-09-22T22:15:55.400Z,63.70
2018-09-22T22:18:24.880Z,64.20
2018-09-22T22:20:54.339Z,64.70
2018-09-22T22:23:23.813Z,64.50
2018-09-22T22:25:53.343Z,64.10
2018-09-22T22:28:22.892Z,65.20
2018-09-22T22:30:52.540Z,66.10
2018-09-22T22:33:22.001Z,64.50
2018-09-22T22:35:51.697Z,63.70
2018-09-22T22:38:21.229Z,64.60
2018-09-22T22:40:50.745Z,65.80
2018-09-22T22:43:20.208Z,63.80
2018-09-22T22:45:49.689Z,64.10
2018-09-22T22:48:19.199Z,64.40
2018-09-22T22:50:49.076Z,63.90
2018-09-22T22:53:18.576Z,63.90
2018-09-22T22:55:48.175Z,64.30
2018-09-22T22:58:17.635Z,64.00
2018-09-22T23:00:47.101Z,64.10
2018-09-22T23:03:16.637Z,64.00
2018-09-22T23:05:45.944Z,64.20
2018-09-22T23:08:15.251Z,65.10
2018-09-22T23:10:44.517Z,65.30
2018-09-22T23:13:13.826Z,65.70
2018-09-22T23:15:43.083Z,65.50
2018-09-22T23:18:12.314Z,65.00
2018-09-22T23:20:41.629Z,65.60
2018-09-22T23:23:10.857Z,65.20
2018-09-22T23:25:40.848Z,66.10
2018-09-22T23:28:10.340Z,65.20
2018-09-22T23:30:39.848Z,66.10
2018-09-22T23:33:09.337Z,66.00
2018-09-22T23:35:38.911Z,65.60
2018-09-22T23:38:08.401Z,65.30
2018-09-22T23:40:37.970Z,65.50
2018-09-22T23:43:07.440Z,65.40
2018-09-22T23:45:36.953Z,66.20
2018-09-22T23:48:06.445Z,66.30
2018-09-22T23:50:36.019Z,65.60
2018-09-22T23:53:05.465Z,65.50
2018-09-22T23:55:34.921Z,65.20
2018-09-22T23:58:04.467Z,65.20
